createdAt,value
2022-10-17T10:25:03.957Z,42.86
2022-10-17T10:30:10.116Z,38.83
2022-10-17T10:35:17.161Z,39.15
2022-10-17T10:40:23.997Z,47.37
2022-10-17T10:45:31.129Z,44.79
2022-10-17T10:50:37.611Z,47.37
2022-10-17T10:55:44.657Z,45.76
2022-10-17T11:00:51.648Z,44.63
2022-10-17T11:05:58.625Z,47.05
2022-10-17T11:11:05.608Z,48.01
2022-10-17T11:16:12.804Z,41.41
2022-10-17T11:21:19.681Z,38.51
2022-10-17T11:26:26.633Z,41.08
2022-10-17T11:31:33.854Z,38.34
2022-10-17T11:36:40.869Z,43.66
2022-10-17T11:41:47.801Z,40.92
2022-10-17T11:46:54.765Z,46.4
2022-10-17T11:52:01.668Z,42.05
2022-10-17T11:57:08.536Z,44.63
2022-10-17T12:02:15.654Z,43.02
2022-10-17T12:07:21.521Z,37.54
2022-10-17T12:12:28.666Z,46.56
2022-10-17T12:17:34.501Z,36.73
2022-10-17T12:22:41.624Z,36.41
2022-10-17T12:27:48.828Z,36.73
2022-10-17T12:32:55.621Z,37.06
2022-10-17T12:38:02.656Z,37.22
2022-10-17T12:43:09.634Z,37.22
2022-10-17T12:48:16.621Z,37.06
2022-10-17T12:53:23.643Z,35.44
2022-10-17T12:58:30.783Z,37.7
2022-10-17T13:03:37.657Z,49.79
2022-10-17T13:08:44.633Z,36.73
2022-10-17T13:13:51.502Z,34.16
2022-10-17T13:18:58.655Z,34.64
2022-10-17T13:24:04.616Z,35.44
2022-10-17T13:29:11.613Z,35.12
2022-10-17T13:34:18.792Z,35.44
2022-10-17T13:39:25.523Z,35.12
2022-10-17T13:44:32.603Z,35.44
2022-10-17T13:49:39.653Z,36.09
2022-10-17T13:54:46.513Z,34.48
2022-10-17T13:59:53.666Z,38.02
2022-10-17T14:04:59.675Z,38.02
2022-10-17T14:10:05.638Z,36.89
2022-10-17T14:15:49.358Z,51.72
2022-10-17T14:20:55.649Z,55.26
2022-10-17T14:26:01.945Z,59.29
2022-10-17T14:31:08.532Z,57.52
2022-10-17T14:36:15.009Z,55.26
2022-10-17T14:41:02.064Z,53.33
2022-10-17T14:46:08.577Z,56.55
2022-10-17T14:51:14.907Z,52.2
2022-10-17T14:56:21.548Z,53.81
2022-10-17T15:01:27.969Z,56.71
2022-10-17T15:06:34.551Z,51.07
2022-10-17T15:11:40.861Z,54.3
2022-10-17T15:16:47.565Z,53.81
2022-10-17T15:21:53.867Z,52.04
2022-10-17T15:27:00.550Z,53.01
2022-10-17T15:32:07.042Z,60.1
2022-10-17T15:37:13.789Z,57.52
2022-10-17T15:42:20.300Z,60.1
2022-10-17T15:47:26.812Z,53.65
2022-10-17T15:52:33.552Z,57.52
2022-10-17T15:57:39.886Z,50.59
2022-10-17T16:02:46.583Z,56.71
2022-10-17T16:07:52.898Z,58.16
2022-10-17T16:12:59.572Z,54.46
2022-10-17T16:18:05.928Z,53.97
2022-10-17T16:23:11.562Z,58.65
2022-10-17T16:28:17.939Z,52.36
